Time;durP1;ratioP1;P1;durP2;ratioP2;P2;SDS_P1;SDS_P2;PMS_P1;PMS_P2;Temp;Humidity;BMP_temperature;BMP_pressure;BME280_temperature;BME280_humidity;BME280_pressure;Samples;Min_cycle;Max_cycle;Signal;HPM_P1;HPM_P2
2022/01/08 00:00:55;;;;;;;;;;;16.10;38.00;;;;;;8301113;28;19920;-48
2022/01/08 00:04:57;;;;;;;;;;;16.10;38.10;;;;;;8300353;28;19921;-48
2022/01/08 00:08:58;;;;;;;;;;;16.10;38.10;;;;;;8301135;28;20006;-48
2022/01/08 00:13:02;;;;;;;;;;;16.10;38.10;;;;;;8300911;28;19921;-48
2022/01/08 00:17:02;;;;;;;;;;;16.10;38.10;;;;;;8300094;28;19936;-48
2022/01/08 00:21:03;;;;;;;;;;;16.10;38.10;;;;;;8300995;28;19917;-49
2022/01/08 00:25:03;;;;;;;;;;;16.10;38.10;;;;;;8300195;28;19925;-48
2022/01/08 00:29:04;;;;;;;;;;;16.10;38.20;;;;;;8299444;28;19925;-48
2022/01/08 00:33:04;;;;;;;;;;;16.00;38.20;;;;;;8300303;28;19951;-48
2022/01/08 00:37:06;;;;;;;;;;;16.00;38.20;;;;;;8299756;28;19960;-47
2022/01/08 00:41:06;;;;;;;;;;;16.10;38.20;;;;;;8299457;28;19924;-48
2022/01/08 00:45:07;;;;;;;;;;;16.00;38.20;;;;;;8299335;28;19952;-49
2022/01/08 00:49:08;;;;;;;;;;;16.00;38.20;;;;;;8299257;28;19925;-48
2022/01/08 00:53:08;;;;;;;;;;;16.00;38.20;;;;;;8298998;28;19922;-47
2022/01/08 00:57:09;;;;;;;;;;;15.90;38.20;;;;;;8299370;28;19914;-48
2022/01/08 01:01:09;;;;;;;;;;;16.00;38.30;;;;;;8299508;28;19972;-47
2022/01/08 01:05:10;;;;;;;;;;;15.90;38.20;;;;;;8298630;28;19952;-49
2022/01/08 01:09:10;;;;;;;;;;;15.90;38.20;;;;;;8299075;28;20347;-49
2022/01/08 01:13:11;;;;;;;;;;;15.90;38.20;;;;;;8299268;28;20270;-48
2022/01/08 01:17:11;;;;;;;;;;;16.00;38.20;;;;;;8298353;28;19941;-48
2022/01/08 01:21:12;;;;;;;;;;;16.00;38.20;;;;;;8298498;28;19924;-49
2022/01/08 01:25:16;;;;;;;;;;;16.00;38.20;;;;;;8298458;28;19918;-47
2022/01/08 01:29:48;;;;;;;;;;;16.10;38.20;;;;;;8296416;28;19925;-48
2022/01/08 01:47:05;;;;;;;;;;;16.10;38.10;;;;;;8299680;28;20068;-48
2022/01/08 01:51:05;;;;;;;;;;;16.10;38.10;;;;;;8297864;28;19987;-48
2022/01/08 01:55:06;;;;;;;;;;;16.10;38.10;;;;;;8297283;28;19918;-52
2022/01/08 01:59:07;;;;;;;;;;;16.10;38.10;;;;;;8297204;28;19929;-49
2022/01/08 02:03:07;;;;;;;;;;;16.10;38.10;;;;;;8297038;28;19914;-49
2022/01/08 02:07:08;;;;;;;;;;;16.10;38.10;;;;;;8297604;28;19967;-49
2022/01/08 02:11:08;;;;;;;;;;;16.10;38.00;;;;;;8297017;28;19918;-49
2022/01/08 02:15:09;;;;;;;;;;;16.10;38.10;;;;;;8297582;28;20011;-51
2022/01/08 02:19:09;;;;;;;;;;;16.10;38.10;;;;;;8297473;28;19920;-49
2022/01/08 02:23:10;;;;;;;;;;;16.00;38.10;;;;;;8296902;28;19918;-49
2022/01/08 02:27:10;;;;;;;;;;;16.00;38.10;;;;;;8297472;28;19914;-52
2022/01/08 02:31:23;;;;;;;;;;;16.00;38.10;;;;;;8297248;28;20375;-52
2022/01/08 02:35:24;;;;;;;;;;;16.00;38.20;;;;;;8296901;28;20004;-48
2022/01/08 02:39:25;;;;;;;;;;;16.00;38.20;;;;;;8297278;28;19921;-48
2022/01/08 02:43:28;;;;;;;;;;;16.00;38.20;;;;;;8296539;28;19963;-48
2022/01/08 02:47:28;;;;;;;;;;;16.00;38.20;;;;;;8297420;28;19925;-51
2022/01/08 02:51:31;;;;;;;;;;;16.00;38.20;;;;;;8296902;28;20409;-51
2022/01/08 02:55:31;;;;;;;;;;;15.90;38.20;;;;;;8296372;28;20359;-49
2022/01/08 02:59:32;;;;;;;;;;;16.00;38.30;;;;;;8296711;28;19956;-49
2022/01/08 03:03:33;;;;;;;;;;;15.90;38.30;;;;;;8296959;28;19920;-50
2022/01/08 03:07:33;;;;;;;;;;;15.90;38.30;;;;;;8298345;28;19925;-49
2022/01/08 03:11:34;;;;;;;;;;;15.90;38.30;;;;;;8302595;28;19918;-48
2022/01/08 03:15:35;;;;;;;;;;;15.90;38.30;;;;;;8302519;28;19917;-48
2022/01/08 03:19:37;;;;;;;;;;;15.90;38.30;;;;;;8301764;28;19976;-49
2022/01/08 03:23:45;;;;;;;;;;;15.90;38.30;;;;;;8302452;28;19943;-48
2022/01/08 03:27:48;;;;;;;;;;;15.90;38.30;;;;;;8303040;28;19980;-48
2022/01/08 03:31:49;;;;;;;;;;;15.90;38.30;;;;;;8301571;28;20289;-49
2022/01/08 03:35:49;;;;;;;;;;;16.00;38.30;;;;;;8301797;28;19924;-49
2022/01/08 03:39:49;;;;;;;;;;;16.00;38.20;;;;;;8301728;28;19914;-50
2022/01/08 03:43:50;;;;;;;;;;;16.00;38.20;;;;;;8301186;28;19968;-48
2022/01/08 03:51:52;;;;;;;;;;;16.00;38.20;;;;;;8301718;28;20348;-51
2022/01/08 03:55:53;;;;;;;;;;;16.00;38.20;;;;;;8300940;28;19925;-50
2022/01/08 03:59:53;;;;;;;;;;;16.00;38.20;;;;;;8301571;28;19917;-50
2022/01/08 04:03:54;;;;;;;;;;;16.00;38.10;;;;;;8300908;28;20338;-49
2022/01/08 04:07:54;;;;;;;;;;;16.00;38.10;;;;;;8300537;28;20387;-50
2022/01/08 04:11:56;;;;;;;;;;;16.10;38.10;;;;;;8300814;28;20287;-49
2022/01/08 04:15:58;;;;;;;;;;;16.00;38.20;;;;;;8300467;28;20278;-49
2022/01/08 04:19:59;;;;;;;;;;;16.00;38.20;;;;;;8299466;28;19980;-51
2022/01/08 04:24:02;;;;;;;;;;;16.00;38.10;;;;;;8300622;28;20000;-52
2022/01/08 04:28:02;;;;;;;;;;;16.10;38.20;;;;;;8300411;28;20302;-49
2022/01/08 04:32:03;;;;;;;;;;;16.00;38.20;;;;;;8299690;28;19924;-49
2022/01/08 04:36:03;;;;;;;;;;;16.00;38.10;;;;;;8300038;28;19972;-48
2022/01/08 04:40:04;;;;;;;;;;;16.10;38.70;;;;;;8299858;28;19996;-48
2022/01/08 04:44:07;;;;;;;;;;;16.10;38.20;;;;;;8299229;28;19968;-49
2022/01/08 04:48:07;;;;;;;;;;;16.00;38.10;;;;;;8300142;28;20016;-49
2022/01/08 04:52:07;;;;;;;;;;;16.00;38.20;;;;;;8299337;28;20318;-48
2022/01/08 04:56:08;;;;;;;;;;;16.00;38.20;;;;;;8298821;28;19917;-50
2022/01/08 05:00:09;;;;;;;;;;;16.00;38.20;;;;;;8299373;28;20374;-50
2022/01/08 05:04:10;;;;;;;;;;;16.00;38.20;;;;;;8298311;28;19964;-51
2022/01/08 05:08:10;;;;;;;;;;;16.00;38.20;;;;;;8298724;28;20268;-49
2022/01/08 05:12:10;;;;;;;;;;;16.00;38.20;;;;;;8298848;28;19993;-48
2022/01/08 05:16:11;;;;;;;;;;;16.00;38.20;;;;;;8298850;28;19913;-50
2022/01/08 05:20:12;;;;;;;;;;;16.00;38.30;;;;;;8298062;28;19956;-49
2022/01/08 05:24:13;;;;;;;;;;;16.00;38.30;;;;;;8298680;28;20401;-49
2022/01/08 05:28:13;;;;;;;;;;;15.90;38.30;;;;;;8298424;28;19930;-49
2022/01/08 05:32:16;;;;;;;;;;;15.90;38.30;;;;;;8296863;28;19928;-47
2022/01/08 05:36:17;;;;;;;;;;;15.90;38.30;;;;;;8298344;28;20371;-48
2022/01/08 05:40:17;;;;;;;;;;;15.90;38.30;;;;;;8297917;28;19920;-50
2022/01/08 05:44:18;;;;;;;;;;;16.00;38.30;;;;;;8297423;28;19925;-51
2022/01/08 05:48:18;;;;;;;;;;;15.90;38.30;;;;;;8298338;28;19964;-50
2022/01/08 05:52:19;;;;;;;;;;;16.00;38.40;;;;;;8297573;28;19924;-48
2022/01/08 05:56:21;;;;;;;;;;;15.90;38.30;;;;;;8297038;28;20283;-50
2022/01/08 06:00:21;;;;;;;;;;;15.90;38.30;;;;;;8297760;28;19920;-49
2022/01/08 06:04:22;;;;;;;;;;;15.90;38.40;;;;;;8297234;28;20375;-47
2022/01/08 06:08:23;;;;;;;;;;;15.90;38.40;;;;;;8297856;28;19925;-49
2022/01/08 06:12:23;;;;;;;;;;;15.90;38.40;;;;;;8297479;28;19925;-48
2022/01/08 06:16:23;;;;;;;;;;;15.90;38.40;;;;;;8296857;28;19925;-50
2022/01/08 06:20:24;;;;;;;;;;;15.90;38.40;;;;;;8297311;28;20036;-48
2022/01/08 06:24:24;;;;;;;;;;;15.90;38.40;;;;;;8297216;28;19914;-48
2022/01/08 06:28:25;;;;;;;;;;;15.90;38.40;;;;;;8296925;28;19932;-46
2022/01/08 06:32:25;;;;;;;;;;;15.90;38.40;;;;;;8297088;28;20246;-46
2022/01/08 06:36:26;;;;;;;;;;;15.90;38.40;;;;;;8297077;28;19925;-47
2022/01/08 06:40:26;;;;;;;;;;;15.90;38.40;;;;;;8296570;28;19917;-47
2022/01/08 06:44:27;;;;;;;;;;;15.90;38.40;;;;;;8302224;28;19956;-48
2022/01/08 06:48:27;;;;;;;;;;;15.90;38.40;;;;;;8303859;28;19972;-48
2022/01/08 06:52:28;;;;;;;;;;;15.90;38.40;;;;;;8302773;28;19923;-52
2022/01/08 06:56:28;;;;;;;;;;;15.90;38.40;;;;;;8303011;28;19917;-49
2022/01/08 07:00:29;;;;;;;;;;;15.90;38.40;;;;;;8302949;28;19917;-47
2022/01/08 07:04:29;;;;;;;;;;;15.90;38.40;;;;;;8302525;28;19913;-49
2022/01/08 07:08:30;;;;;;;;;;;15.90;38.40;;;;;;8302615;28;20323;-50
2022/01/08 07:12:30;;;;;;;;;;;15.90;38.30;;;;;;8302539;28;19924;-51
2022/01/08 07:16:31;;;;;;;;;;;15.90;38.40;;;;;;8302695;28;19918;-48
2022/01/08 07:20:31;;;;;;;;;;;15.90;38.40;;;;;;8302582;28;19918;-48
2022/01/08 07:24:32;;;;;;;;;;;15.90;38.40;;;;;;8302299;28;20411;-47
2022/01/08 07:28:32;;;;;;;;;;;15.90;38.40;;;;;;8301320;28;19925;-47
2022/01/08 07:32:38;;;;;;;;;;;15.90;38.40;;;;;;8302209;28;19921;-46
2022/01/08 07:36:39;;;;;;;;;;;15.90;38.50;;;;;;8301735;28;19918;-48
2022/01/08 07:40:39;;;;;;;;;;;15.90;38.40;;;;;;8301230;28;19964;-48
2022/01/08 07:44:40;;;;;;;;;;;15.90;38.50;;;;;;8301559;28;19918;-47
2022/01/08 07:48:40;;;;;;;;;;;15.90;38.50;;;;;;8301493;28;19980;-47
2022/01/08 07:52:42;;;;;;;;;;;15.90;39.00;;;;;;8300605;28;19918;-47
2022/01/08 07:56:43;;;;;;;;;;;15.90;38.50;;;;;;8300801;28;19925;-46
2022/01/08 08:00:43;;;;;;;;;;;15.90;38.50;;;;;;8301045;28;19921;-47
2022/01/08 08:04:44;;;;;;;;;;;15.80;38.40;;;;;;8300128;28;20367;-46
2022/01/08 08:08:44;;;;;;;;;;;15.90;38.50;;;;;;8300754;28;19930;-47
2022/01/08 08:12:45;;;;;;;;;;;15.80;39.00;;;;;;8300633;28;19917;-47
2022/01/08 08:16:45;;;;;;;;;;;15.90;38.50;;;;;;8300370;28;20278;-46
2022/01/08 08:20:46;;;;;;;;;;;15.90;38.50;;;;;;8300465;28;19972;-47
2022/01/08 08:24:46;;;;;;;;;;;15.90;38.50;;;;;;8300748;28;19977;-46
2022/01/08 08:28:47;;;;;;;;;;;15.90;38.50;;;;;;8299743;28;19932;-48
2022/01/08 08:32:48;;;;;;;;;;;15.90;38.50;;;;;;8299729;28;19918;-47
2022/01/08 08:36:48;;;;;;;;;;;15.90;38.50;;;;;;8299844;28;19953;-49
2022/01/08 08:40:51;;;;;;;;;;;15.90;38.50;;;;;;8299216;28;20028;-50
2022/01/08 08:44:51;;;;;;;;;;;15.90;38.50;;;;;;8299782;28;19929;-47
2022/01/08 08:48:53;;;;;;;;;;;15.90;38.50;;;;;;8299624;28;19926;-49
2022/01/08 08:52:53;;;;;;;;;;;15.90;38.40;;;;;;8298964;28;19918;-47
2022/01/08 08:56:54;;;;;;;;;;;15.90;38.40;;;;;;8299596;28;20008;-47
2022/01/08 09:00:54;;;;;;;;;;;15.90;38.40;;;;;;8299106;28;19922;-46
2022/01/08 09:04:54;;;;;;;;;;;15.90;38.40;;;;;;8298724;28;20350;-46
2022/01/08 09:08:55;;;;;;;;;;;15.90;38.40;;;;;;8298893;28;19926;-47
2022/01/08 09:12:56;;;;;;;;;;;15.90;38.40;;;;;;8298685;28;19918;-47
2022/01/08 09:16:57;;;;;;;;;;;15.90;38.40;;;;;;8298375;28;20291;-47
2022/01/08 09:20:58;;;;;;;;;;;15.90;38.40;;;;;;8298831;28;19917;-49
2022/01/08 09:24:59;;;;;;;;;;;15.90;38.30;;;;;;8298896;28;19913;-49
2022/01/08 09:28:59;;;;;;;;;;;15.90;38.30;;;;;;8297809;28;19925;-47
2022/01/08 09:32:59;;;;;;;;;;;15.90;38.30;;;;;;8298106;28;19918;-48
2022/01/08 09:37:00;;;;;;;;;;;15.90;38.40;;;;;;8298112;28;19918;-48
2022/01/08 09:41:00;;;;;;;;;;;16.00;38.40;;;;;;8298362;28;19924;-47
2022/01/08 09:45:01;;;;;;;;;;;15.90;38.40;;;;;;8298222;28;20008;-49
2022/01/08 09:49:02;;;;;;;;;;;15.90;38.40;;;;;;8298065;28;19926;-50
2022/01/08 09:53:02;;;;;;;;;;;16.00;38.40;;;;;;8297428;28;19918;-50
2022/01/08 09:57:03;;;;;;;;;;;15.90;38.30;;;;;;8298011;28;20375;-47
2022/01/08 10:01:20;;;;;;;;;;;15.90;38.40;;;;;;8297478;28;19921;-47
2022/01/08 10:05:20;;;;;;;;;;;15.90;38.30;;;;;;8297407;28;19913;-48
2022/01/08 10:09:20;;;;;;;;;;;16.00;38.40;;;;;;8297640;28;19979;-46
2022/01/08 10:13:22;;;;;;;;;;;15.90;38.30;;;;;;8297641;28;19918;-47
2022/01/08 10:17:41;;;;;;;;;;;16.00;38.40;;;;;;8301566;28;20273;-47
2022/01/08 10:21:43;;;;;;;;;;;16.00;38.40;;;;;;8308068;28;19921;-48
2022/01/08 10:25:58;;;;;;;;;;;15.90;38.30;;;;;;8307949;28;19913;-48
2022/01/08 10:29:58;;;;;;;;;;;15.90;38.30;;;;;;8307913;28;20356;-50
2022/01/08 10:34:02;;;;;;;;;;;16.00;38.30;;;;;;8307944;28;19964;-46
2022/01/08 10:38:02;;;;;;;;;;;16.00;38.30;;;;;;8307386;28;19918;-46
2022/01/08 10:42:13;;;;;;;;;;;16.00;38.30;;;;;;8308064;28;20389;-47
2022/01/08 10:46:15;;;;;;;;;;;16.00;38.40;;;;;;8308091;28;19922;-48
2022/01/08 10:50:21;;;;;;;;;;;16.00;38.40;;;;;;8307351;28;19926;-47
2022/01/08 10:54:25;;;;;;;;;;;16.00;38.30;;;;;;8307922;28;19940;-49
2022/01/08 10:58:42;;;;;;;;;;;16.00;38.40;;;;;;8307345;28;19918;-47
2022/01/08 11:02:44;;;;;;;;;;;16.00;38.40;;;;;;8307455;28;19917;-48
2022/01/08 11:06:52;;;;;;;;;;;16.00;38.30;;;;;;8307599;28;19979;-46
2022/01/08 11:10:52;;;;;;;;;;;16.00;38.60;;;;;;8306380;28;19952;-48
2022/01/08 11:18:57;;;;;;;;;;;16.10;38.50;;;;;;8307481;28;19917;-47
2022/01/08 11:22:59;;;;;;;;;;;16.10;38.40;;;;;;8306737;28;20004;-48
2022/01/08 11:27:00;;;;;;;;;;;16.20;38.40;;;;;;8307150;28;19917;-50
2022/01/08 11:31:01;;;;;;;;;;;16.20;38.40;;;;;;8302523;28;19921;-49
2022/01/08 11:35:03;;;;;;;;;;;16.20;38.40;;;;;;8301571;28;19949;-47
2022/01/08 11:39:08;;;;;;;;;;;16.20;38.40;;;;;;8301909;28;20371;-50
2022/01/08 11:43:10;;;;;;;;;;;16.20;38.50;;;;;;8301842;28;20279;-46
2022/01/08 11:47:11;;;;;;;;;;;16.30;38.50;;;;;;8300948;28;19922;-51
2022/01/08 11:51:16;;;;;;;;;;;16.30;38.50;;;;;;8301597;28;19964;-52
2022/01/08 11:55:32;;;;;;;;;;;16.30;38.50;;;;;;8301219;28;19971;-48
2022/01/08 11:59:35;;;;;;;;;;;16.30;38.60;;;;;;8300976;28;19917;-49
2022/01/08 12:03:37;;;;;;;;;;;16.30;38.50;;;;;;8301392;28;19972;-49
2022/01/08 12:07:45;;;;;;;;;;;16.30;38.50;;;;;;8300575;28;19917;-48
2022/01/08 12:11:46;;;;;;;;;;;16.30;38.40;;;;;;8301150;28;19921;-48
2022/01/08 12:15:49;;;;;;;;;;;16.30;38.50;;;;;;8300973;28;19921;-48
2022/01/08 12:19:50;;;;;;;;;;;16.30;38.50;;;;;;8300232;28;19949;-47
2022/01/08 12:23:50;;;;;;;;;;;16.30;38.40;;;;;;8300428;28;19918;-51
2022/01/08 12:27:50;;;;;;;;;;;16.30;38.50;;;;;;8300222;28;19925;-49
2022/01/08 12:31:51;;;;;;;;;;;16.30;38.40;;;;;;8299802;28;19913;-50
2022/01/08 12:35:57;;;;;;;;;;;16.30;38.40;;;;;;8300542;28;19945;-48
2022/01/08 12:39:58;;;;;;;;;;;16.30;38.40;;;;;;8299608;28;19921;-49
2022/01/08 12:44:18;;;;;;;;;;;16.30;38.40;;;;;;8299588;28;20387;-48
2022/01/08 12:48:20;;;;;;;;;;;16.30;38.40;;;;;;8299621;28;19932;-48
2022/01/08 12:52:20;;;;;;;;;;;16.30;38.40;;;;;;8299459;28;19917;-47
2022/01/08 12:56:21;;;;;;;;;;;16.30;38.40;;;;;;8299093;28;20366;-49
2022/01/08 13:00:23;;;;;;;;;;;16.30;38.40;;;;;;8299526;28;20417;-49
2022/01/08 13:04:24;;;;;;;;;;;16.30;38.30;;;;;;8298908;28;19955;-48
2022/01/08 13:08:25;;;;;;;;;;;16.30;38.40;;;;;;8299364;28;20012;-49
2022/01/08 13:12:26;;;;;;;;;;;16.30;38.30;;;;;;8299190;28;19917;-49
2022/01/08 13:16:33;;;;;;;;;;;16.30;38.30;;;;;;8298746;28;19957;-47
2022/01/08 13:20:33;;;;;;;;;;;16.30;38.30;;;;;;8298850;28;19929;-47
2022/01/08 13:24:45;;;;;;;;;;;16.30;38.30;;;;;;8298673;28;19921;-49
2022/01/08 13:28:48;;;;;;;;;;;16.30;38.30;;;;;;8298249;28;19926;-49
2022/01/08 13:32:58;;;;;;;;;;;16.30;38.30;;;;;;8298741;28;19918;-48
2022/01/08 13:37:00;;;;;;;;;;;16.30;38.40;;;;;;8298607;28;20364;-48
2022/01/08 13:41:10;;;;;;;;;;;16.30;38.30;;;;;;8297755;28;20342;-49
2022/01/08 13:45:12;;;;;;;;;;;16.30;38.30;;;;;;8298444;28;19922;-49
2022/01/08 13:49:14;;;;;;;;;;;16.30;38.30;;;;;;8297974;28;19964;-49
2022/01/08 13:53:15;;;;;;;;;;;16.30;38.40;;;;;;8296777;28;20344;-50
2022/01/08 13:57:16;;;;;;;;;;;16.30;38.30;;;;;;8297419;28;19917;-47
2022/01/08 14:01:18;;;;;;;;;;;16.30;38.30;;;;;;8297922;28;19922;-50
2022/01/08 14:05:19;;;;;;;;;;;16.30;38.30;;;;;;8295233;28;20011;-52
2022/01/08 14:09:19;;;;;;;;;;;16.30;38.30;;;;;;8298032;28;19925;-48
2022/01/08 14:13:23;;;;;;;;;;;16.30;38.30;;;;;;8297612;28;20004;-51
2022/01/08 14:17:28;;;;;;;;;;;16.30;38.30;;;;;;8298300;28;19932;-47
2022/01/08 14:21:28;;;;;;;;;;;16.30;38.40;;;;;;8298322;28;20395;-51
2022/01/08 14:25:33;;;;;;;;;;;16.30;38.40;;;;;;8297215;28;19964;-52
2022/01/08 14:29:35;;;;;;;;;;;16.30;38.40;;;;;;8297163;28;19964;-49
2022/01/08 14:33:35;;;;;;;;;;;16.30;38.30;;;;;;8297369;28;19943;-50
2022/01/08 14:37:39;;;;;;;;;;;16.30;38.30;;;;;;8296690;28;19913;-50
2022/01/08 14:41:41;;;;;;;;;;;16.30;38.30;;;;;;8297483;28;20403;-48
2022/01/08 14:45:50;;;;;;;;;;;16.30;38.30;;;;;;8297290;28;19921;-50
2022/01/08 14:49:50;;;;;;;;;;;16.30;38.30;;;;;;8296631;28;19925;-49
2022/01/08 14:53:50;;;;;;;;;;;16.30;38.30;;;;;;8297073;28;19917;-49
2022/01/08 14:57:51;;;;;;;;;;;16.30;38.30;;;;;;8296951;28;19913;-49
2022/01/08 15:01:52;;;;;;;;;;;16.30;38.30;;;;;;8296596;28;19913;-49
2022/01/08 15:05:52;;;;;;;;;;;16.30;38.30;;;;;;8302694;28;19924;-48
2022/01/08 15:09:53;;;;;;;;;;;16.30;38.40;;;;;;8302610;28;19926;-49
2022/01/08 15:13:53;;;;;;;;;;;16.30;38.50;;;;;;8302340;28;19948;-49
2022/01/08 15:17:54;;;;;;;;;;;16.30;38.40;;;;;;8302500;28;19918;-48
2022/01/08 15:21:54;;;;;;;;;;;16.30;38.40;;;;;;8302713;28;20024;-48
2022/01/08 15:25:55;;;;;;;;;;;16.30;38.40;;;;;;8301760;28;19917;-47
2022/01/08 15:29:57;;;;;;;;;;;16.20;38.40;;;;;;8302132;28;19930;-48
2022/01/08 15:33:57;;;;;;;;;;;16.20;38.40;;;;;;8302216;28;19960;-49
2022/01/08 15:37:58;;;;;;;;;;;16.20;38.30;;;;;;8301733;28;19941;-50
2022/01/08 15:41:58;;;;;;;;;;;16.20;38.40;;;;;;8302058;28;20398;-49
2022/01/08 15:45:59;;;;;;;;;;;16.20;38.40;;;;;;8302072;28;19960;-49
2022/01/08 15:49:59;;;;;;;;;;;16.20;38.30;;;;;;8301118;28;19925;-52
2022/01/08 15:54:00;;;;;;;;;;;16.20;38.40;;;;;;8301496;28;19925;-49
2022/01/08 15:58:00;;;;;;;;;;;16.20;38.50;;;;;;8301459;28;20008;-49
2022/01/08 16:02:01;;;;;;;;;;;16.20;38.40;;;;;;8300737;28;20349;-50
2022/01/08 16:06:01;;;;;;;;;;;16.20;38.50;;;;;;8301548;28;19917;-48
2022/01/08 16:10:02;;;;;;;;;;;16.20;38.50;;;;;;8300740;28;19972;-49
2022/01/08 16:14:03;;;;;;;;;;;16.10;38.50;;;;;;8299746;28;19917;-48
2022/01/08 16:18:03;;;;;;;;;;;16.20;38.50;;;;;;8300625;28;19920;-49
2022/01/08 16:22:04;;;;;;;;;;;16.20;38.60;;;;;;8300503;28;19991;-48
2022/01/08 16:26:04;;;;;;;;;;;16.20;38.60;;;;;;8299938;28;20306;-49
2022/01/08 16:30:05;;;;;;;;;;;16.20;38.60;;;;;;8300551;28;20331;-49
2022/01/08 16:34:06;;;;;;;;;;;16.10;38.50;;;;;;8300418;28;20386;-49
2022/01/08 16:38:06;;;;;;;;;;;16.10;38.60;;;;;;8298669;28;19944;-49
2022/01/08 16:42:07;;;;;;;;;;;16.10;38.50;;;;;;8300141;28;20295;-49
2022/01/08 16:46:08;;;;;;;;;;;16.20;38.60;;;;;;8299712;28;20373;-49
2022/01/08 16:50:09;;;;;;;;;;;16.10;38.50;;;;;;8299120;28;19929;-52
2022/01/08 16:54:09;;;;;;;;;;;16.10;38.60;;;;;;8299760;28;19929;-48
2022/01/08 16:58:10;;;;;;;;;;;16.10;38.60;;;;;;8299648;28;19952;-49
2022/01/08 17:02:11;;;;;;;;;;;16.10;38.60;;;;;;8298748;28;20021;-48
2022/01/08 17:06:14;;;;;;;;;;;16.10;38.60;;;;;;8299126;28;19925;-49
2022/01/08 17:10:14;;;;;;;;;;;16.10;38.60;;;;;;8298233;28;19932;-49
2022/01/08 17:14:15;;;;;;;;;;;16.10;38.60;;;;;;8298780;28;19921;-50
2022/01/08 17:18:15;;;;;;;;;;;16.10;38.60;;;;;;8299008;28;19956;-49
2022/01/08 17:22:16;;;;;;;;;;;16.10;38.50;;;;;;8298691;28;19918;-50
2022/01/08 17:26:17;;;;;;;;;;;16.10;38.50;;;;;;8296923;28;20371;-49
2022/01/08 17:30:17;;;;;;;;;;;16.10;38.50;;;;;;8298612;28;19932;-48
2022/01/08 17:34:18;;;;;;;;;;;16.10;38.50;;;;;;8298391;28;19964;-49
2022/01/08 17:38:18;;;;;;;;;;;16.10;38.50;;;;;;8297983;28;19981;-49
2022/01/08 17:42:19;;;;;;;;;;;16.10;38.50;;;;;;8298179;28;19925;-49
2022/01/08 17:46:19;;;;;;;;;;;16.10;38.50;;;;;;8298017;28;20294;-48
2022/01/08 17:50:20;;;;;;;;;;;16.10;38.50;;;;;;8297455;28;19925;-52
2022/01/08 17:54:20;;;;;;;;;;;16.10;38.50;;;;;;8297903;28;19917;-49
2022/01/08 17:58:21;;;;;;;;;;;16.10;38.50;;;;;;8298049;28;19917;-50
2022/01/08 18:02:21;;;;;;;;;;;16.10;38.40;;;;;;8297275;28;20310;-53
2022/01/08 18:06:22;;;;;;;;;;;16.10;38.50;;;;;;8297669;28;19917;-51
2022/01/08 18:10:22;;;;;;;;;;;16.10;38.50;;;;;;8297409;28;19929;-51
2022/01/08 18:14:23;;;;;;;;;;;16.10;38.50;;;;;;8273228;28;20386;-49
2022/01/08 18:18:23;;;;;;;;;;;16.10;38.50;;;;;;8297897;28;19943;-49
2022/01/08 18:22:24;;;;;;;;;;;16.10;38.60;;;;;;8297054;28;19928;-47
2022/01/08 18:26:24;;;;;;;;;;;16.10;38.60;;;;;;8297215;28;19952;-49
2022/01/08 18:30:26;;;;;;;;;;;16.10;38.60;;;;;;8297345;28;20016;-48
2022/01/08 18:34:26;;;;;;;;;;;16.10;38.60;;;;;;8296711;28;19913;-50
2022/01/08 18:38:27;;;;;;;;;;;16.00;38.50;;;;;;8299315;28;20287;-48
2022/01/08 18:42:28;;;;;;;;;;;16.10;38.60;;;;;;8303600;28;19917;-48
2022/01/08 18:46:29;;;;;;;;;;;16.10;38.50;;;;;;8303398;28;20334;-51
2022/01/08 18:50:29;;;;;;;;;;;16.10;38.60;;;;;;8303263;28;19926;-46
2022/01/08 18:54:30;;;;;;;;;;;16.10;38.50;;;;;;8303392;28;19914;-48
2022/01/08 18:58:30;;;;;;;;;;;16.10;38.50;;;;;;8303375;28;19932;-47
2022/01/08 19:02:31;;;;;;;;;;;16.10;38.60;;;;;;8301624;28;19968;-48
2022/01/08 19:06:31;;;;;;;;;;;16.10;38.60;;;;;;8302979;28;20008;-47
2022/01/08 19:10:31;;;;;;;;;;;16.10;38.50;;;;;;8302224;28;19925;-49
2022/01/08 19:14:34;;;;;;;;;;;16.10;38.50;;;;;;8303006;28;19964;-50
2022/01/08 19:18:35;;;;;;;;;;;16.10;38.50;;;;;;8302978;28;20015;-49
2022/01/08 19:22:36;;;;;;;;;;;16.00;38.50;;;;;;8301803;28;19917;-48
2022/01/08 19:26:36;;;;;;;;;;;16.00;38.50;;;;;;8302498;28;20286;-51
2022/01/08 19:30:38;;;;;;;;;;;16.00;38.50;;;;;;8301975;28;19926;-48
2022/01/08 19:34:38;;;;;;;;;;;16.00;38.60;;;;;;8301670;28;19914;-49
2022/01/08 19:38:39;;;;;;;;;;;16.00;38.50;;;;;;8302369;28;19921;-48
2022/01/08 19:42:39;;;;;;;;;;;16.00;38.50;;;;;;8301760;28;19940;-48
2022/01/08 19:46:40;;;;;;;;;;;16.00;38.50;;;;;;8301609;28;20385;-48
2022/01/08 19:50:40;;;;;;;;;;;16.00;38.50;;;;;;8300415;28;19932;-49
2022/01/08 19:54:40;;;;;;;;;;;16.00;38.50;;;;;;8301630;28;20448;-48
2022/01/08 19:58:41;;;;;;;;;;;16.00;38.50;;;;;;8301066;28;19922;-48
2022/01/08 20:02:41;;;;;;;;;;;16.00;38.60;;;;;;8301634;28;19937;-49
2022/01/08 20:06:44;;;;;;;;;;;16.00;38.60;;;;;;8301332;28;19917;-49
2022/01/08 20:10:44;;;;;;;;;;;16.10;38.60;;;;;;8299691;28;19932;-48
2022/01/08 20:14:45;;;;;;;;;;;16.00;38.60;;;;;;8301038;28;19924;-48
2022/01/08 20:18:45;;;;;;;;;;;16.00;38.80;;;;;;8300628;28;19968;-48
2022/01/08 20:22:46;;;;;;;;;;;16.10;38.90;;;;;;8299975;28;19918;-48
2022/01/08 20:26:46;;;;;;;;;;;16.10;39.40;;;;;;8300404;28;20431;-47
2022/01/08 20:30:47;;;;;;;;;;;16.10;38.60;;;;;;8300092;28;20310;-48
2022/01/08 20:34:47;;;;;;;;;;;16.10;38.70;;;;;;8300300;28;19936;-48
2022/01/08 20:38:48;;;;;;;;;;;16.20;38.70;;;;;;8299960;28;19980;-47
2022/01/08 20:42:48;;;;;;;;;;;16.20;38.70;;;;;;8299908;28;20263;-50
2022/01/08 20:46:49;;;;;;;;;;;16.20;38.70;;;;;;8299659;28;19948;-50
2022/01/08 20:50:49;;;;;;;;;;;16.30;38.60;;;;;;8299629;28;19987;-48
2022/01/08 20:54:50;;;;;;;;;;;16.20;38.60;;;;;;8299907;28;19924;-48
2022/01/08 20:58:50;;;;;;;;;;;16.30;38.70;;;;;;8299027;28;19917;-47
2022/01/08 21:02:51;;;;;;;;;;;16.30;38.80;;;;;;8298962;28;20378;-48
2022/01/08 21:06:52;;;;;;;;;;;16.30;38.80;;;;;;8299332;28;20330;-50
2022/01/08 21:10:52;;;;;;;;;;;16.30;38.80;;;;;;8298645;28;19979;-48
2022/01/08 21:14:52;;;;;;;;;;;16.20;38.70;;;;;;8299268;28;20004;-48
2022/01/08 21:18:53;;;;;;;;;;;16.30;38.70;;;;;;8298998;28;19918;-48
2022/01/08 21:22:54;;;;;;;;;;;16.30;38.70;;;;;;8298335;28;20373;-48
2022/01/08 21:26:55;;;;;;;;;;;16.20;38.60;;;;;;8298648;28;19921;-50
2022/01/08 21:30:56;;;;;;;;;;;16.30;38.60;;;;;;8298624;28;20270;-48
2022/01/08 21:34:57;;;;;;;;;;;16.30;38.60;;;;;;8298348;28;19915;-47
2022/01/08 21:39:05;;;;;;;;;;;16.20;38.60;;;;;;8298542;28;19951;-49
2022/01/08 21:43:06;;;;;;;;;;;16.20;38.60;;;;;;8301848;28;20272;-48
2022/01/08 21:47:08;;;;;;;;;;;16.20;38.60;;;;;;8297988;28;19922;-49
2022/01/08 21:51:09;;;;;;;;;;;16.20;38.70;;;;;;8298183;28;19921;-49
2022/01/08 21:55:12;;;;;;;;;;;16.20;38.70;;;;;;8297497;28;21289;-48
2022/01/08 21:59:13;;;;;;;;;;;16.20;38.70;;;;;;8297435;28;20379;-50
2022/01/08 22:03:13;;;;;;;;;;;16.10;38.60;;;;;;8297866;28;19917;-48
2022/01/08 22:07:14;;;;;;;;;;;16.10;38.70;;;;;;8297740;28;19918;-52
2022/01/08 22:11:15;;;;;;;;;;;16.10;38.60;;;;;;8296983;28;19926;-49
2022/01/08 22:15:15;;;;;;;;;;;16.10;38.70;;;;;;8297279;28;19922;-48
2022/01/08 22:19:16;;;;;;;;;;;16.10;38.70;;;;;;8297493;28;19918;-48
2022/01/08 22:23:16;;;;;;;;;;;16.10;38.70;;;;;;8296872;28;19917;-48
2022/01/08 22:27:17;;;;;;;;;;;16.10;38.70;;;;;;8297266;28;19913;-47
2022/01/08 22:31:17;;;;;;;;;;;16.10;38.70;;;;;;8297444;28;19976;-48
2022/01/08 22:35:17;;;;;;;;;;;16.10;38.70;;;;;;8296836;28;20383;-51
2022/01/08 22:39:19;;;;;;;;;;;16.10;38.70;;;;;;8297103;28;19917;-48
2022/01/08 22:43:20;;;;;;;;;;;16.10;38.80;;;;;;8297119;28;19955;-48
2022/01/08 22:47:20;;;;;;;;;;;16.00;38.70;;;;;;8296946;28;19928;-49
2022/01/08 22:51:21;;;;;;;;;;;16.10;38.70;;;;;;8296935;28;19932;-48
2022/01/08 22:55:22;;;;;;;;;;;16.10;38.80;;;;;;8297209;28;19913;-48
2022/01/08 22:59:22;;;;;;;;;;;16.00;38.80;;;;;;8296301;28;19924;-49
2022/01/08 23:03:25;;;;;;;;;;;16.00;38.80;;;;;;8296162;28;19922;-48
2022/01/08 23:07:25;;;;;;;;;;;16.10;38.90;;;;;;8296358;28;20441;-49
2022/01/08 23:11:26;;;;;;;;;;;16.10;38.80;;;;;;8295584;28;19978;-49
2022/01/08 23:15:26;;;;;;;;;;;16.10;38.90;;;;;;8296703;28;20362;-48
2022/01/08 23:19:27;;;;;;;;;;;16.10;38.80;;;;;;8296104;28;19918;-49
2022/01/08 23:23:27;;;;;;;;;;;16.10;38.90;;;;;;8296659;28;19918;-49
2022/01/08 23:27:27;;;;;;;;;;;16.20;38.90;;;;;;8302349;28;19960;-48
2022/01/08 23:31:28;;;;;;;;;;;16.20;38.90;;;;;;8301709;28;19933;-50
2022/01/08 23:35:29;;;;;;;;;;;16.20;38.80;;;;;;8302148;28;19928;-48
2022/01/08 23:39:31;;;;;;;;;;;16.20;38.80;;;;;;8301904;28;19921;-48
2022/01/08 23:43:31;;;;;;;;;;;16.20;38.80;;;;;;8301356;28;19943;-48